Map

Track Data

SID SEASON NUMBER BASIN SUBBASIN NAME ISO_TIME NATURE LAT LON WMO_WIND WMO_PRES WMO_AGENCY TRACK_TYPE DIST2LAND LANDFALL IFLAG USA_AGENCY USA_ATCF_ID USA_LAT USA_LON USA_RECORD USA_STATUS USA_WIND USA_PRES USA_SSHS USA_R34_NE USA_R34_SE USA_R34_SW USA_R34_NW USA_R50_NE USA_R50_SE USA_R50_SW USA_R50_NW USA_R64_NE USA_R64_SE USA_R64_SW USA_R64_NW USA_POCI USA_ROCI USA_RMW USA_EYE TOKYO_LAT TOKYO_LON TOKYO_GRADE TOKYO_WIND TOKYO_PRES TOKYO_R50_DIR TOKYO_R50_LONG TOKYO_R50_SHORT TOKYO_R30_DIR TOKYO_R30_LONG TOKYO_R30_SHORT TOKYO_LAND CMA_LAT CMA_LON CMA_CAT CMA_WIND CMA_PRES HKO_LAT HKO_LON HKO_CAT HKO_WIND HKO_PRES NEWDELHI_LAT NEWDELHI_LON NEWDELHI_GRADE NEWDELHI_WIND NEWDELHI_PRES NEWDELHI_CI NEWDELHI_DP NEWDELHI_POCI REUNION_LAT REUNION_LON REUNION_TYPE REUNION_WIND REUNION_PRES REUNION_TNUM REUNION_CI REUNION_RMW REUNION_R34_NE REUNION_R34_SE REUNION_R34_SW REUNION_R34_NW REUNION_R50_NE REUNION_R50_SE REUNION_R50_SW REUNION_R50_NW REUNION_R64_NE REUNION_R64_SE REUNION_R64_SW REUNION_R64_NW BOM_LAT BOM_LON BOM_TYPE BOM_WIND BOM_PRES BOM_TNUM BOM_CI BOM_RMW BOM_R34_NE BOM_R34_SE BOM_R34_SW BOM_R34_NW BOM_R50_NE BOM_R50_SE BOM_R50_SW BOM_R50_NW BOM_R64_NE BOM_R64_SE BOM_R64_SW BOM_R64_NW BOM_ROCI BOM_POCI BOM_EYE BOM_POS_METHOD BOM_PRES_METHOD NADI_LAT NADI_LON NADI_CAT NADI_WIND NADI_PRES WELLINGTON_LAT WELLINGTON_LON WELLINGTON_WIND WELLINGTON_PRES DS824_LAT DS824_LON DS824_STAGE DS824_WIND DS824_PRES TD9636_LAT TD9636_LON TD9636_STAGE TD9636_WIND TD9636_PRES TD9635_LAT TD9635_LON TD9635_WIND TD9635_PRES TD9635_ROCI NEUMANN_LAT NEUMANN_LON NEUMANN_CLASS NEUMANN_WIND NEUMANN_PRES MLC_LAT MLC_LON MLC_CLASS MLC_WIND MLC_PRES USA_GUST BOM_GUST BOM_GUST_PER REUNION_GUST REUNION_GUST_PER USA_SEAHGT USA_SEARAD_NE USA_SEARAD_SE USA_SEARAD_SW USA_SEARAD_NW STORM_SPEED STORM_DIR
1883080S15414 1883 13 SI MM NOT_NAMED 1883-03-20 18:00:00 NR -15.3000 53.5000 main 321 311 __________O___ -1 -15.3000 53.5000 7 2 219
1883080S15414 1883 13 SI MM NOT_NAMED 1883-03-20 21:00:00 NR -15.3750 53.4373 main 311 311 __________P___ -1 -15.3750 53.4373 7 3 212
1883080S15414 1883 13 SI MM NOT_NAMED 1883-03-21 00:00:00 NR -15.5199 53.3598 main 311 300 __________P___ -1 -15.5199 53.3598 7 5 202
1883080S15414 1883 13 SI MM NOT_NAMED 1883-03-21 03:00:00 NR -15.8049 53.2525 main 303 289 __________P___ -1 -15.8049 53.2525 7 8 198
1883080S15414 1883 13 SI MM NOT_NAMED 1883-03-21 06:00:00 NR -16.3000 53.1000 main 295 294 __________O___ -1 -16.3000 53.1000 7 13 195
1883080S15414 1883 13 SI MM NOT_NAMED 1883-03-21 09:00:00 NR -17.0475 52.8985 main 308 308 __________P___ -1 -17.0475 52.8985 7 17 193
1883080S15414 1883 13 SI MM NOT_NAMED 1883-03-21 12:00:00 NR -17.9780 52.6924 main 335 334 __________P___ -1 -17.9780 52.6924 7 20 190
1883080S15414 1883 13 SI MM NOT_NAMED 1883-03-21 15:00:00 NR -18.9944 52.5397 main 338 311 __________P___ -1 -18.9944 52.5397 7 20 185
1883080S15414 1883 13 SI MM NOT_NAMED 1883-03-21 18:00:00 NR -20.0000 52.5000 main 306 272 __________O___ -1 -20.0000 52.5000 7 19 178
1883080S15414 1883 13 SI MM NOT_NAMED 1883-03-21 21:00:00 NR -20.8980 52.6263 main 270 247 __________P___ -1 -20.8980 52.6263 7 18 169
1883080S15414 1883 13 SI MM NOT_NAMED 1883-03-22 00:00:00 NR -21.7620 52.8750 main 250 248 __________P___ -1 -21.7620 52.8750 7 18 162
1883080S15414 1883 13 SI MM NOT_NAMED 1883-03-22 03:00:00 NR -22.5700 53.2114 main 260 258 __________P___ -1 -22.5700 53.2114 7 17 156
1883080S15414 1883 13 SI MM NOT_NAMED 1883-03-22 06:00:00 NR -23.3000 53.6000 main 283 283 __________O___ -1 -23.3000 53.6000 7 16 153
1883080S15414 1883 13 SI MM NOT_NAMED 1883-03-22 09:00:00 NR -23.9493 53.9823 main 319 319 __________P___ -1 -23.9493 53.9823 7 14 149
1883080S15414 1883 13 SI MM NOT_NAMED 1883-03-22 12:00:00 NR -24.5199 54.4056 main 367 367 __________P___ -1 -24.5199 54.4056 7 13 144
1883080S15414 1883 13 SI MM NOT_NAMED 1883-03-22 15:00:00 NR -25.0305 54.8511 main 408 408 __________P___ -1 -25.0305 54.8511 7 13 140
1883080S15414 1883 13 SI MM NOT_NAMED 1883-03-22 18:00:00 NR -25.5000 55.3000 main 459 459 __________O___ -1 -25.5000 55.3000 7 12 140
1883080S15414 1883 13 SI MM NOT_NAMED 1883-03-22 21:00:00 NR -25.9356 55.7036 main 503 503 __________P___ -1 -25.9356 55.7036 7 11 139
1883080S15414 1883 13 SI MM NOT_NAMED 1883-03-23 00:00:00 NR -26.3411 56.1094 main 549 549 __________P___ -1 -26.3411 56.1094 7 11 138
1883080S15414 1883 13 SI MM NOT_NAMED 1883-03-23 03:00:00 NR -26.7511 56.5353 main 610 610 __________P___ -1 -26.7511 56.5353 7 12 137
1883080S15414 1883 13 SI MM NOT_NAMED 1883-03-23 06:00:00 NR -27.2000 57.0000 main 663 663 __________O___ -1 -27.2000 57.0000 7 13 139
1883080S15414 1883 13 SI MM NOT_NAMED 1883-03-23 09:00:00 NR -27.7522 57.5270 main 740 740 __________P___ -1 -27.7522 57.5270 7 15 140
1883080S15414 1883 13 SI MM NOT_NAMED 1883-03-23 12:00:00 NR -28.3424 58.0965 main 811 811 __________P___ -1 -28.3424 58.0965 7 16 139
1883080S15414 1883 13 SI MM NOT_NAMED 1883-03-23 15:00:00 NR -28.9364 58.6929 main 893 893 __________P___ -1 -28.9364 58.6929 7 16 138
1883080S15414 1883 13 SI MM NOT_NAMED 1883-03-23 18:00:00 NR -29.5000 59.3000 main 977 977 __________O___ -1 -29.5000 59.3000 7 15 135
1883080S15414 1883 13 SI MM NOT_NAMED 1883-03-23 21:00:00 NR -29.9851 59.8913 main 1052 1052 __________P___ -1 -29.9851 59.8913 7 14 132
1883080S15414 1883 13 SI MM NOT_NAMED 1883-03-24 00:00:00 NR -30.4363 60.4884 main 1117 1117 __________P___ -1 -30.4363 60.4884 7 14 131
1883080S15414 1883 13 SI MM NOT_NAMED 1883-03-24 03:00:00 NR -30.8694 61.0913 main 1194 1194 __________P___ -1 -30.8694 61.0913 7 14 130
1883080S15414 1883 13 SI MM NOT_NAMED 1883-03-24 06:00:00 NR -31.3000 61.7000 main 1260 1260 __________O___ -1 -31.3000 61.7000 7 14 130
1883080S15414 1883 13 SI MM NOT_NAMED 1883-03-24 09:00:00 NR -31.7491 62.3155 main 1328 1328 __________P___ -1 -31.7491 62.3155 7 14 131
1883080S15414 1883 13 SI MM NOT_NAMED 1883-03-24 12:00:00 NR -32.1988 62.9375 main 1405 1405 __________P___ -1 -32.1988 62.9375 7 14 130
1883080S15414 1883 13 SI MM NOT_NAMED 1883-03-24 15:00:00 NR -32.6491 63.5657 main 1472 1472 __________P___ -1 -32.6491 63.5657 7 14 130
1883080S15414 1883 13 SI MM NOT_NAMED 1883-03-24 18:00:00 NR -33.1000 64.2000 main 1546 1546 __________O___ -1 -33.1000 64.2000 7 14 130
1883080S15414 1883 13 SI MM NOT_NAMED 1883-03-24 21:00:00 NR -33.5515 64.8402 main 1621 1621 __________P___ -1 -33.5515 64.8402 7 14 130
1883080S15414 1883 13 SI MM NOT_NAMED 1883-03-25 00:00:00 NR -34.0028 65.4868 main 1670 1618 __________P___ -1 -34.0028 65.4868 7 14 130
1883080S15414 1883 13 SI MM NOT_NAMED 1883-03-25 03:00:00 NR -34.4526 66.1399 main 1607 1555 __________P___ -1 -34.4526 66.1399 7 14 130
1883080S15414 1883 13 SI MM NOT_NAMED 1883-03-25 06:00:00 NR -34.9000 66.8000 main 1555 __________O___ -1 -34.9000 66.8000 7 14 130

About IBTrACS Database

This database is a web-friendly format of International Best Track Archive for Climate Stewardship (IBTrACS), a global best track data archive curated by NOAA dating back to 1842.

Updated: 2021-10-19